Aviation Digital Data Service (ADDS)

Output produced by METARs form (1536 UTC 20 November 2018)
found at http://www.aviationweather.gov/metar/data/
 
METAR text: KCCR 201505Z 09004KT 2SM HZ CLR 03/M01 A3002 RMK AO2 T00331011
Conditions at: KCCR (CONCORD , CA, US) observed 1505 UTC 20 November 2018
Temperature: 3.3°C (38°F)
Dewpoint: -1.1°C (30°F) [RH = 73%]
Pressure (altimeter): 30.02 inches Hg (1016.7 mb)
Winds: from the E (90 degrees) at 5 MPH (4 knots; 2.1 m/s)
Visibility: 2.00 miles (3.22 km)
Ceiling: at least 12,000 feet AGL
Clouds: sky clear below 12,000 feet AGL
Weather: HZ  (haze)

METAR text: KCCR 201453Z AUTO 00000KT 3SM HZ CLR 03/M01 A3002 RMK AO2 SLP152 T00331011 53008
Conditions at: KCCR (CONCORD , CA, US) observed 1453 UTC 20 November 2018
Temperature: 3.3°C (38°F)
Dewpoint: -1.1°C (30°F) [RH = 73%]
Pressure (altimeter): 30.02 inches Hg (1016.7 mb)
[Sea-level pressure: 1015.2 mb]
Winds: calm
Visibility: 3 miles ( 5 km)
Ceiling: at least 12,000 feet AGL
Clouds: sky clear below 12,000 feet AGL
Weather: HZ  (haze)

METAR text: KCCR 201353Z AUTO 15003KT 3SM HZ CLR 04/M01 A3001 RMK AO2 SLP147 T00391006 $
Conditions at: KCCR (CONCORD , CA, US) observed 1353 UTC 20 November 2018
Temperature: 3.9°C (39°F)
Dewpoint: -0.6°C (31°F) [RH = 72%]
Pressure (altimeter): 30.01 inches Hg (1016.3 mb)
[Sea-level pressure: 1014.7 mb]
Winds: from the SSE (150 degrees) at 3 MPH (3 knots; 1.5 m/s)
Visibility: 3 miles ( 5 km)
Ceiling: at least 12,000 feet AGL
Clouds: sky clear below 12,000 feet AGL
Weather: HZ  (haze)
SOME DATA ABOVE MAY BE INACCURATE!!!
"$" is an indication the sensor requires maintenance

METAR text: KCCR 201253Z AUTO 00000KT 3SM HZ CLR 04/M01 A3001 RMK AO2 SLP146 T00391011 $
Conditions at: KCCR (CONCORD , CA, US) observed 1253 UTC 20 November 2018
Temperature: 3.9°C (39°F)
Dewpoint: -1.1°C (30°F) [RH = 70%]
Pressure (altimeter): 30.01 inches Hg (1016.3 mb)
[Sea-level pressure: 1014.6 mb]
Winds: calm
Visibility: 3 miles ( 5 km)
Ceiling: at least 12,000 feet AGL
Clouds: sky clear below 12,000 feet AGL
Weather: HZ  (haze)
SOME DATA ABOVE MAY BE INACCURATE!!!
"$" is an indication the sensor requires maintenance

METAR text: KCCR 201153Z AUTO 00000KT 3SM HZ CLR 04/M01 A3000 RMK AO2 SLP143 T00391011 10083 20039 58010 $
Conditions at: KCCR (CONCORD , CA, US) observed 1153 UTC 20 November 2018
Temperature: 3.9°C (39°F)
Dewpoint: -1.1°C (30°F) [RH = 70%]
Pressure (altimeter): 30.00 inches Hg (1016.0 mb)
[Sea-level pressure: 1014.3 mb]
Winds: calm
Visibility: 3 miles ( 5 km)
Ceiling: at least 12,000 feet AGL
Clouds: sky clear below 12,000 feet AGL
Weather: HZ  (haze)
SOME DATA ABOVE MAY BE INACCURATE!!!
"$" is an indication the sensor requires maintenance

METAR text: KCCR 201053Z AUTO 18003KT 3SM HZ CLR 05/00 A3001 RMK AO2 SLP148 T00500000 $
Conditions at: KCCR (CONCORD , CA, US) observed 1053 UTC 20 November 2018
Temperature: 5.0°C (41°F)
Dewpoint: 0.0°C (32°F) [RH = 70%]
Pressure (altimeter): 30.01 inches Hg (1016.3 mb)
[Sea-level pressure: 1014.8 mb]
Winds: from the S (180 degrees) at 3 MPH (3 knots; 1.5 m/s)
Visibility: 3 miles ( 5 km)
Ceiling: at least 12,000 feet AGL
Clouds: sky clear below 12,000 feet AGL
Weather: HZ  (haze)
SOME DATA ABOVE MAY BE INACCURATE!!!
"$" is an indication the sensor requires maintenance

METAR text: KCCR 200953Z AUTO 00000KT 3SM HZ CLR 06/00 A3002 RMK AO2 SLP150 T00560000 $
Conditions at: KCCR (CONCORD , CA, US) observed 0953 UTC 20 November 2018
Temperature: 5.6°C (42°F)
Dewpoint: 0.0°C (32°F) [RH = 67%]
Pressure (altimeter): 30.02 inches Hg (1016.7 mb)
[Sea-level pressure: 1015.0 mb]
Winds: calm
Visibility: 3 miles ( 5 km)
Ceiling: at least 12,000 feet AGL
Clouds: sky clear below 12,000 feet AGL
Weather: HZ  (haze)
SOME DATA ABOVE MAY BE INACCURATE!!!
"$" is an indication the sensor requires maintenance

METAR text: KCCR 200928Z AUTO 15004KT 3SM HZ SCT017 06/00 A3002 RMK AO2 T00560000 $
Conditions at: KCCR (CONCORD , CA, US) observed 0928 UTC 20 November 2018
Temperature: 5.6°C (42°F)
Dewpoint: 0.0°C (32°F) [RH = 67%]
Pressure (altimeter): 30.02 inches Hg (1016.7 mb)
Winds: from the SSE (150 degrees) at 5 MPH (4 knots; 2.1 m/s)
Visibility: 3 miles ( 5 km)
Ceiling: at least 12,000 feet AGL
Clouds: scattered clouds at 1700 feet AGL
Weather: HZ  (haze)
SOME DATA ABOVE MAY BE INACCURATE!!!
"$" is an indication the sensor requires maintenance

METAR text: KCCR 200906Z AUTO 12003KT 3SM HZ OVC017 06/01 A3002 RMK AO2 T00610006 $
Conditions at: KCCR (CONCORD , CA, US) observed 0906 UTC 20 November 2018
Temperature: 6.1°C (43°F)
Dewpoint: 0.6°C (33°F) [RH = 68%]
Pressure (altimeter): 30.02 inches Hg (1016.7 mb)
Winds: from the ESE (120 degrees) at 3 MPH (3 knots; 1.5 m/s)
Visibility: 3 miles ( 5 km)
Ceiling: 1700 feet AGL
Clouds: overcast cloud deck at 1700 feet AGL
Weather: HZ  (haze)
SOME DATA ABOVE MAY BE INACCURATE!!!
"$" is an indication the sensor requires maintenance

METAR text: KCCR 200853Z AUTO 16004KT 2 1/2SM HZ OVC017 06/00 A3003 RMK AO2 SLP153 T00610000 53001 $
Conditions at: KCCR (CONCORD , CA, US) observed 0853 UTC 20 November 2018
Temperature: 6.1°C (43°F)
Dewpoint: 0.0°C (32°F) [RH = 65%]
Pressure (altimeter): 30.03 inches Hg (1017.0 mb)
[Sea-level pressure: 1015.3 mb]
Winds: from the SSE (160 degrees) at 5 MPH (4 knots; 2.1 m/s)
Visibility: 2.50 miles (4.02 km)
Ceiling: 1700 feet AGL
Clouds: overcast cloud deck at 1700 feet AGL
Weather: HZ  (haze)
SOME DATA ABOVE MAY BE INACCURATE!!!
"$" is an indication the sensor requires maintenance

METAR text: KCCR 200851Z AUTO 16004KT 2 1/2SM HZ OVC017 06/00 A3003 RMK AO2 $
Conditions at: KCCR (CONCORD , CA, US) observed 0851 UTC 20 November 2018
Temperature: 6.0°C (43°F)
Dewpoint: 0.0°C (32°F) [RH = 65%]
Pressure (altimeter): 30.03 inches Hg (1017.0 mb)
Winds: from the SSE (160 degrees) at 5 MPH (4 knots; 2.1 m/s)
Visibility: 2.50 miles (4.02 km)
Ceiling: 1700 feet AGL
Clouds: overcast cloud deck at 1700 feet AGL
Weather: HZ  (haze)
SOME DATA ABOVE MAY BE INACCURATE!!!
"$" is an indication the sensor requires maintenance

METAR text: KCCR 200841Z AUTO 18004KT 3SM HZ OVC017 07/01 A3003 RMK AO2 T00670006 $
Conditions at: KCCR (CONCORD , CA, US) observed 0841 UTC 20 November 2018
Temperature: 6.7°C (44°F)
Dewpoint: 0.6°C (33°F) [RH = 65%]
Pressure (altimeter): 30.03 inches Hg (1017.0 mb)
Winds: from the S (180 degrees) at 5 MPH (4 knots; 2.1 m/s)
Visibility: 3 miles ( 5 km)
Ceiling: 1700 feet AGL
Clouds: overcast cloud deck at 1700 feet AGL
Weather: HZ  (haze)
SOME DATA ABOVE MAY BE INACCURATE!!!
"$" is an indication the sensor requires maintenance

METAR text: KCCR 200828Z AUTO 13003KT 2 1/2SM HZ BKN017 06/01 A3003 RMK AO2 T00610006 $
Conditions at: KCCR (CONCORD , CA, US) observed 0828 UTC 20 November 2018
Temperature: 6.1°C (43°F)
Dewpoint: 0.6°C (33°F) [RH = 68%]
Pressure (altimeter): 30.03 inches Hg (1017.0 mb)
Winds: from the SE (130 degrees) at 3 MPH (3 knots; 1.5 m/s)
Visibility: 2.50 miles (4.02 km)
Ceiling: 1700 feet AGL
Clouds: broken clouds at 1700 feet AGL
Weather: HZ  (haze)
SOME DATA ABOVE MAY BE INACCURATE!!!
"$" is an indication the sensor requires maintenance

METAR text: KCCR 200753Z AUTO 00000KT 2 1/2SM HZ CLR 06/01 A3002 RMK AO2 SLP151 T00610006 402060028 $
Conditions at: KCCR (CONCORD , CA, US) observed 0753 UTC 20 November 2018
Temperature: 6.1°C (43°F)
Dewpoint: 0.6°C (33°F) [RH = 68%]
Pressure (altimeter): 30.02 inches Hg (1016.7 mb)
[Sea-level pressure: 1015.1 mb]
Winds: calm
Visibility: 2.50 miles (4.02 km)
Ceiling: at least 12,000 feet AGL
Clouds: sky clear below 12,000 feet AGL
Weather: HZ  (haze)
SOME DATA ABOVE MAY BE INACCURATE!!!
"$" is an indication the sensor requires maintenance